Time,TemperatureF,DewpointF,PressureIn,WindDirection,WindDirectionDegrees,WindSpeedMPH,WindSpeedGustMPH,Humidity,HourlyPrecipIn,Conditions,Clouds,dailyrainin,SoftwareType,DateUTC
2012-11-14 00:00:00,54.6,11.9,30.01,SE,135,2.0,5.0,18,0.00,,,0.00,WUHU216DAVISVP2,2012-11-14 08:00:00,
2012-11-14 00:30:00,56.8,11.0,30.02,ESE,113,3.0,7.0,16,0.00,,,0.00,WUHU216DAVISVP2,2012-11-14 08:30:00,
2012-11-14 01:00:00,54.9,12.1,30.01,SE,135,2.0,5.0,18,0.00,,,0.00,WUHU216DAVISVP2,2012-11-14 09:00:00,
2012-11-14 01:30:00,54.1,11.5,30.01,ESE,113,2.0,5.0,18,0.00,,,0.00,WUHU216DAVISVP2,2012-11-14 09:30:00,
2012-11-14 02:00:00,53.5,12.2,30.00,East,90,3.0,6.0,19,0.00,,,0.00,WUHU216DAVISVP2,2012-11-14 10:00:00,
2012-11-14 02:30:00,54.6,11.9,30.00,East,90,4.0,7.0,18,0.00,,,0.00,WUHU216DAVISVP2,2012-11-14 10:30:00,
2012-11-14 03:00:00,55.9,11.6,29.99,East,90,4.0,10.0,17,0.00,,,0.00,WUHU216DAVISVP2,2012-11-14 11:00:00,
2012-11-14 03:30:00,55.5,11.3,29.99,East,90,5.0,10.0,17,0.00,,,0.00,WUHU216DAVISVP2,2012-11-14 11:30:00,
2012-11-14 04:00:00,54.2,11.5,29.99,ESE,113,2.0,6.0,18,0.00,,,0.00,WUHU216DAVISVP2,2012-11-14 12:00:00,
2012-11-14 04:30:00,53.1,11.9,30.00,ESE,113,1.0,4.0,19,0.00,,,0.00,WUHU216DAVISVP2,2012-11-14 12:30:00,
2012-11-14 05:00:00,54.0,11.4,30.00,ESE,113,1.0,4.0,18,0.00,,,0.00,WUHU216DAVISVP2,2012-11-14 13:00:00,
2012-11-14 05:30:00,54.1,11.5,30.01,SE,135,1.0,6.0,18,0.00,,,0.00,WUHU216DAVISVP2,2012-11-14 13:30:00,
2012-11-14 06:00:00,53.4,10.9,30.01,SE,135,1.0,5.0,18,0.00,,,0.00,WUHU216DAVISVP2,2012-11-14 14:00:00,
2012-11-14 06:30:00,56.8,11.0,30.01,SE,135,2.0,6.0,16,0.00,,,0.00,WUHU216DAVISVP2,2012-11-14 14:30:00,
2012-11-14 07:00:00,58.8,11.2,30.02,ESE,113,2.0,7.0,15,0.00,,,0.00,WUHU216DAVISVP2,2012-11-14 15:00:00,
2012-11-14 07:30:00,63.3,11.5,30.02,East,90,3.0,9.0,13,0.00,,,0.00,WUHU216DAVISVP2,2012-11-14 15:30:00,
2012-11-14 08:00:00,66.4,10.2,30.02,East,90,6.0,12.0,11,0.00,,,0.00,WUHU216DAVISVP2,2012-11-14 16:00:00,
2012-11-14 08:30:00,68.3,9.5,30.02,East,90,8.0,16.0,10,0.00,,,0.00,WUHU216DAVISVP2,2012-11-14 16:30:00,
2012-11-14 09:00:00,70.5,8.9,30.02,East,90,7.0,14.0,9,0.00,,,0.00,WUHU216DAVISVP2,2012-11-14 17:00:00,
2012-11-14 09:30:00,72.6,10.5,30.02,East,90,7.0,13.0,9,0.00,,,0.00,WUHU216DAVISVP2,2012-11-14 17:30:00,
2012-11-14 10:00:00,74.6,12.0,30.01,East,90,6.0,13.0,9,0.00,,,0.00,WUHU216DAVISVP2,2012-11-14 18:00:00,
2012-11-14 10:30:00,75.7,7.2,30.01,East,90,6.0,15.0,7,0.00,,,0.00,WUHU216DAVISVP2,2012-11-14 18:30:00,
2012-11-14 11:00:00,77.8,8.7,29.99,ENE,68,5.0,13.0,7,0.00,,,0.00,WUHU216DAVISVP2,2012-11-14 19:00:00,
2012-11-14 11:30:00,79.2,9.8,29.96,ENE,68,5.0,13.0,7,0.00,,,0.00,WUHU216DAVISVP2,2012-11-14 19:30:00,
2012-11-14 12:00:00,81.1,11.1,29.94,East,90,3.0,10.0,7,0.00,,,0.00,WUHU216DAVISVP2,2012-11-14 20:00:00,
2012-11-14 12:30:00,82.0,8.3,29.94,SW,225,2.0,8.0,6,0.00,,,0.00,WUHU216DAVISVP2,2012-11-14 20:30:00,
2012-11-14 13:00:00,83.0,5.0,29.93,SW,225,1.0,4.0,5,0.00,,,0.00,WUHU216DAVISVP2,2012-11-14 21:00:00,
2012-11-14 13:30:00,83.0,5.0,29.92,SW,225,1.0,6.0,5,0.00,,,0.00,WUHU216DAVISVP2,2012-11-14 21:30:00,
2012-11-14 14:00:00,83.5,5.4,29.92,WSW,248,1.0,3.0,5,0.00,,,0.00,WUHU216DAVISVP2,2012-11-14 22:00:00,
2012-11-14 14:30:00,83.5,5.4,29.91,WSW,248,1.0,5.0,5,0.00,,,0.00,WUHU216DAVISVP2,2012-11-14 22:30:00,
2012-11-14 15:00:00,82.7,4.8,29.90,West,270,1.0,5.0,5,0.00,,,0.00,WUHU216DAVISVP2,2012-11-14 23:00:00,
2012-11-14 15:30:00,79.6,6.6,29.90,West,270,1.0,5.0,6,0.00,,,0.00,WUHU216DAVISVP2,2012-11-14 23:30:00,
2012-11-14 16:00:00,76.2,7.5,29.90,West,270,0.0,3.0,7,0.00,,,0.00,WUHU216DAVISVP2,2012-11-15 00:00:00,
2012-11-14 16:30:00,70.9,11.5,29.90,WSW,248,0.0,1.0,10,0.00,,,0.00,WUHU216DAVISVP2,2012-11-15 00:30:00,
2012-11-14 17:00:00,66.6,12.3,29.91,ESE,113,0.0,1.0,12,0.00,,,0.00,WUHU216DAVISVP2,2012-11-15 01:00:00,
2012-11-14 17:30:00,61.4,13.3,29.91,ESE,113,0.0,1.0,15,0.00,,,0.00,WUHU216DAVISVP2,2012-11-15 01:30:00,
2012-11-14 18:00:00,59.9,13.5,29.92,East,90,0.0,1.0,16,0.00,,,0.00,WUHU216DAVISVP2,2012-11-15 02:00:00,
2012-11-14 18:30:00,60.4,15.3,29.93,ESE,113,0.0,1.0,17,0.00,,,0.00,WUHU216DAVISVP2,2012-11-15 02:30:00,
2012-11-14 19:00:00,59.5,15.9,29.94,NE,45,0.0,2.0,18,0.00,,,0.00,WUHU216DAVISVP2,2012-11-15 03:00:00,
2012-11-14 19:30:00,59.6,16.0,29.94,East,90,0.0,1.0,18,0.00,,,0.00,WUHU216DAVISVP2,2012-11-15 03:30:00,
2012-11-14 20:00:00,59.9,16.2,29.95,East,90,0.0,1.0,18,0.00,,,0.00,WUHU216DAVISVP2,2012-11-15 04:00:00,
2012-11-14 20:30:00,57.3,15.3,29.95,East,90,0.0,1.0,19,0.00,,,0.00,WUHU216DAVISVP2,2012-11-15 04:30:00,
2012-11-14 21:00:00,53.6,16.6,29.96,ESE,113,0.0,2.0,23,0.00,,,0.00,WUHU216DAVISVP2,2012-11-15 05:00:00,
2012-11-14 21:30:00,54.9,15.6,29.96,SE,135,0.0,2.0,21,0.00,,,0.00,WUHU216DAVISVP2,2012-11-15 05:30:00,
2012-11-14 22:00:00,55.8,14.1,29.96,SE,135,0.0,2.0,19,0.00,,,0.00,WUHU216DAVISVP2,2012-11-15 06:00:00,
2012-11-14 22:30:00,56.0,14.3,29.95,SE,135,0.0,2.0,19,0.00,,,0.00,WUHU216DAVISVP2,2012-11-15 06:30:00,
2012-11-14 23:00:00,59.3,14.4,29.95,ESE,113,1.0,4.0,17,0.00,,,0.00,WUHU216DAVISVP2,2012-11-15 07:00:00,
2012-11-14 23:30:00,55.0,14.6,29.95,ESE,113,0.0,2.0,20,0.00,,,0.00,WUHU216DAVISVP2,2012-11-15 07:30:00,